Wednesday, April 16, 2014
13:32 UTC
  |  Log In   |  Register Free
Airport Search:

New River Valley Airport
(KPSK)

New River Valley Airport Diagram
No Airport Diagram Available

FAA data valid effective April 3, 2014 until May 29, 2014 (unless otherwise noted).

 
 
 
 
 
 
 
 
 
 
 
 
 
 

Current Aviation Weather for New River Valley Airport (KPSK)

The most recent METAR observation for KPSK was updated at: 1255 UTC
METAR Summary (Translated METAR)
KPSK
161255Z AUTO 35004KT 10SM CLR M02/M09 A3034 RMK AO2 T10171092
KBCB
(13.6 nm NE from KPSK)
161235Z AUTO 35006KT 10SM CLR M02/M07 A3033 RMK AO2
TAF Summary (Translated TAF)
KBCB
(13.6 nm NE from KPSK)
161129Z 1612/1712 34008G16KT P6SM SKC FM161500 VRB05KT P6SM SKC FM170000 09005KT P6SM SKC
  Airport Weather Conditions for KPSK

 Current Weather at PSK
28° F
Fair
North winds at 4.6 mph
PSK NOAA Radar

Pressure: 30.33 in
Humidity: 58%
Wind: North at 4.6 MPH (4 KT)
Dew Point: 14.9°F
Visibility: 10.00 mi


Airport Weather Forecast for KPSK

Translated METAR and TAF for KPSK
Translated METAR for KPSK (1332 UTC 16 April 2014)
found at http://aviationweather.gov/adds/metars/
 
METAR text: KPSK 161315Z AUTO 36005KT 10SM CLR M01/M09 A3034 RMK AO2 T10121089
Conditions at: KPSK (DUBLIN/NEW RIV , VA, US) observed 1315 UTC 16 April 2014
Temperature: -1.2°C (30°F)
Dewpoint: -8.9°C (16°F) [RH = 56%]
Pressure (altimeter): 30.34 inches Hg (1027.5 mb)
Winds: from the N (360 degrees) at 6 MPH (5 knots; 2.6 m/s)
Visibility: 10 or more miles (16+ km)
Ceiling: at least 12,000 feet AGL
Clouds: sky clear below 12,000 feet AGL
Weather: automated observation with no human augmentation;
there may or may not be significant weather present at this time
Translated TAF for KPSK

There is no translated TAF available for this airport

Find All Airport Services Find A Hotel Find A Rental Car Find A Golf Course Find A Restaurant $100 Hamburger



FBO's on the Field
FBO Company Facility Photos Services Transportation Aviation Fuel Prices: Prices include tax
Catering Weather Repair Courtesy Rental Type 100LL JetA JetA+ MOGAS 8087
 
New River Valley Airport

This FBO has not yet been rated
FS:Avfuel
Last Updated: Mar-18
Login to update fuel prices
SS:
Contact New River Valley AirportMore FBO Information
 
Add another FBO Facility Photos Catering Weather Repair Courtesy Rental Type 100LL JetA JetA+ MOGAS 8087
Services Transportation Aviation Fuel Prices: Prices include tax


GlobalAir.com Airport Resource Center model-print
model-print
model-print
model-print